Hlavní strana
METAR-TAF:

METAR-TAF

Letiště :

Ipiales, Kolumbie

zeměpisná šířka: 00-49N, zeměpisná délka: 077-38W, výška: 2961 m

Aktuální stav počasí

Zpráva byla vytvořena před 7 hodinami a 12 minutami, v 23:00 UTC
Bezvětří
Teplota 12°C
Vlhkost vzduchu 94%
Tlak 1029 hPa
Viditelnost 10 km a více
Skoro jasno ve výšce 1200 ft
Zataženo ve výšce 20000 ft

METAR: SKIP 242300Z 00000KT 9999 FEW012 OVC200 12/11 A3038

Čas: 01:12 (06:12 UTC)


TAF: chybějící

Stav a předpovědi počasí z více než 4 000 letišť (zprávy METAR a TAF).

Červené a žluté tečky na mapě představují dostupné meteorologické stanice.

Když kurzor umístíte na tečku, zobrazí se název stanice.

Pak kliknutím zobrazíte stav a předpověď počasí.

Chcete-li změnit mapu, kliknutím na zelené tlačítko se znaménkem +mapu přiblížíte, kliknutím na zelené tlačítko se znaménkem – mapu oddálíte a kliknutím na zelené šipky přejdete na sousední mapy.


METAR-TAF: